createdAt,value
2023-11-02T00:04:16.255Z,2.33
2023-11-02T00:09:40.680Z,1.70
2023-11-02T00:14:47.046Z,1.02
2023-11-02T00:19:49.826Z,1.55
2023-11-02T00:24:53.528Z,1.30
2023-11-02T00:29:57.501Z,1.23
2023-11-02T00:35:01.404Z,1.50
2023-11-02T00:40:04.166Z,1.30
2023-11-02T00:45:09.052Z,1.70
2023-11-02T00:50:32.069Z,1.52
2023-11-02T00:55:36.178Z,1.77
2023-11-02T01:00:54.915Z,1.05
2023-11-02T01:05:57.623Z,1.70
2023-11-02T01:11:00.274Z,0.95
2023-11-02T01:16:06.964Z,1.08
2023-11-02T01:21:09.910Z,1.48
2023-11-02T01:26:31.127Z,1.17
2023-11-02T01:31:37.714Z,1.00
2023-11-02T01:36:41.130Z,1.00
2023-11-02T01:41:46.638Z,1.47
2023-11-02T01:46:54.630Z,1.00
2023-11-02T01:52:01.254Z,1.02
2023-11-02T01:57:05.773Z,1.15
2023-11-02T02:02:15.892Z,0.75
2023-11-02T02:07:20.000Z,0.82
2023-11-02T02:12:28.178Z,0.68
2023-11-02T02:17:37.676Z,0.82
2023-11-02T02:22:44.731Z,0.75
2023-11-02T02:27:55.598Z,1.10
2023-11-02T02:33:06.884Z,0.50
2023-11-02T02:38:13.438Z,1.15
2023-11-02T02:43:18.237Z,0.63
2023-11-02T02:48:21.998Z,1.08
2023-11-02T02:53:28.340Z,0.52
2023-11-02T02:58:31.397Z,1.00
2023-11-02T03:03:36.337Z,1.52
2023-11-02T03:08:42.542Z,0.47
2023-11-02T03:13:47.176Z,0.45
2023-11-02T03:18:50.583Z,0.90
2023-11-02T03:23:59.595Z,0.98
2023-11-02T03:29:06.486Z,0.40
2023-11-02T03:34:14.220Z,0.75
2023-11-02T03:39:25.308Z,0.80
2023-11-02T03:44:31.918Z,0.52
2023-11-02T03:49:43.754Z,0.57
2023-11-02T03:54:59.337Z,0.65
2023-11-02T04:00:05.730Z,0.73
2023-11-02T04:05:13.798Z,0.93
2023-11-02T04:10:18.407Z,0.45
2023-11-02T04:15:21.129Z,0.40
2023-11-02T04:20:23.917Z,1.05
2023-11-02T04:25:27.952Z,0.70
2023-11-02T04:30:31.777Z,0.68
2023-11-02T04:35:34.430Z,0.63
2023-11-02T04:40:40.264Z,0.60
2023-11-02T04:45:42.943Z,0.52
2023-11-02T04:50:45.596Z,1.00
2023-11-02T04:55:49.626Z,0.70
2023-11-02T05:00:52.312Z,0.20
2023-11-02T05:05:54.964Z,0.50
2023-11-02T05:10:59.001Z,0.57
2023-11-02T05:16:01.577Z,0.63
2023-11-02T05:21:04.343Z,0.82
2023-11-02T05:26:08.633Z,0.60
2023-11-02T05:31:11.679Z,0.50
2023-11-02T05:36:14.298Z,0.80
2023-11-02T05:41:18.444Z,0.32
2023-11-02T05:51:23.629Z,0.90
2023-11-02T05:56:27.638Z,0.75
2023-11-02T06:01:30.389Z,0.80
2023-11-02T06:06:33.020Z,0.70
2023-11-02T06:11:36.953Z,0.30
2023-11-02T06:16:39.617Z,0.68
2023-11-02T06:21:42.357Z,0.47
2023-11-02T06:26:46.365Z,0.60
2023-11-02T06:31:48.972Z,0.40
2023-11-02T06:36:51.597Z,0.60
2023-11-02T06:41:57.453Z,0.38
2023-11-02T06:47:01.183Z,0.70
2023-11-02T06:52:04.113Z,0.40
2023-11-02T06:57:08.656Z,0.80
2023-11-02T07:07:13.889Z,0.45
2023-11-02T07:12:18.212Z,0.70
2023-11-02T07:17:21.033Z,0.60
2023-11-02T07:22:23.739Z,0.43
2023-11-02T07:27:29.519Z,0.60
2023-11-02T07:32:32.103Z,0.70
2023-11-02T07:37:34.712Z,0.70
2023-11-02T07:42:39.546Z,0.70
2023-11-02T07:47:42.600Z,0.65
2023-11-02T07:52:48.545Z,0.50
2023-11-02T07:57:52.475Z,0.90
2023-11-02T08:02:54.980Z,0.57
2023-11-02T08:07:57.511Z,0.50
2023-11-02T08:13:01.894Z,0.70
2023-11-02T08:18:05.048Z,0.47
2023-11-02T08:23:07.659Z,0.90
2023-11-02T08:28:11.851Z,0.70
2023-11-02T08:33:14.756Z,1.00
2023-11-02T08:38:17.522Z,0.60
2023-11-02T08:43:21.644Z,0.70
2023-11-02T08:48:24.380Z,0.75
2023-11-02T08:53:27.238Z,0.90
2023-11-02T08:58:31.354Z,0.70
2023-11-02T09:08:37.167Z,1.05
2023-11-02T09:13:41.102Z,0.53
2023-11-02T09:18:44.084Z,0.25
2023-11-02T09:23:46.791Z,1.30
2023-11-02T09:28:51.323Z,0.47
2023-11-02T09:33:54.281Z,0.80
2023-11-02T09:39:01.368Z,0.70
2023-11-02T09:44:07.508Z,1.00
2023-11-02T09:49:12.441Z,1.20
2023-11-02T09:54:15.156Z,0.80
2023-11-02T09:59:19.593Z,1.42
2023-11-02T10:04:22.546Z,0.73
2023-11-02T10:09:25.986Z,0.98
2023-11-02T10:14:29.962Z,1.40
2023-11-02T10:19:33.196Z,1.13
2023-11-02T10:24:36.552Z,1.00
2023-11-02T10:29:46.544Z,0.80
2023-11-02T10:34:49.176Z,2.33
2023-11-02T10:39:51.963Z,0.73
2023-11-02T10:44:57.624Z,1.90
2023-11-02T10:50:01.211Z,1.00
2023-11-02T10:55:10.901Z,1.02
2023-11-02T11:00:17.131Z,1.30
2023-11-02T11:05:20.700Z,0.90
2023-11-02T11:10:23.441Z,1.08
2023-11-02T11:15:27.625Z,1.60
2023-11-02T11:20:30.493Z,1.27
2023-11-02T11:25:33.512Z,1.48
2023-11-02T11:30:39.400Z,1.37
2023-11-02T11:36:11.602Z,1.10
2023-11-02T11:41:29.293Z,1.30
2023-11-02T11:46:46.123Z,1.30
2023-11-02T11:51:50.988Z,1.90
2023-11-02T11:56:53.782Z,1.63
2023-11-02T12:02:15.917Z,1.63
2023-11-02T12:07:23.404Z,2.03
2023-11-02T12:12:26.182Z,2.03
2023-11-02T12:17:29.115Z,2.10
2023-11-02T12:22:50.077Z,2.20
2023-11-02T12:27:58.642Z,1.80
2023-11-02T12:33:01.881Z,1.50
2023-11-02T12:38:08.463Z,1.60
2023-11-02T12:43:12.184Z,1.83
2023-11-02T12:48:28.096Z,1.92
2023-11-02T12:53:36.783Z,1.50
2023-11-02T12:58:39.615Z,1.88
2023-11-02T13:03:57.590Z,1.77
2023-11-02T13:09:12.725Z,1.63
2023-11-02T13:14:19.711Z,1.92
2023-11-02T13:19:26.143Z,1.63
2023-11-02T13:24:31.219Z,1.63
2023-11-02T13:29:35.659Z,1.08
2023-11-02T13:34:40.907Z,1.30
2023-11-02T13:39:46.085Z,1.70
2023-11-02T13:44:49.213Z,1.70
2023-11-02T13:49:51.893Z,1.58
2023-11-02T13:54:56.646Z,1.60
2023-11-02T14:00:02.113Z,0.85
2023-11-02T14:05:06.473Z,1.23
2023-11-02T14:10:11.802Z,1.00
2023-11-02T14:15:14.592Z,1.40
2023-11-02T14:20:18.480Z,0.85
2023-11-02T14:25:24.441Z,1.48
2023-11-02T14:30:27.348Z,0.70
2023-11-02T14:35:31.666Z,1.27
2023-11-02T14:40:35.968Z,1.20
2023-11-02T14:45:39.559Z,0.90
2023-11-02T14:50:42.207Z,0.55
2023-11-02T14:55:46.427Z,1.20
2023-11-02T15:00:50.340Z,1.63
2023-11-02T15:05:53.033Z,0.90
2023-11-02T15:10:57.428Z,1.73
2023-11-02T15:15:59.973Z,0.75
2023-11-02T15:21:07.705Z,0.57
2023-11-02T15:26:11.642Z,0.80
2023-11-02T15:31:20.208Z,0.95
2023-11-02T15:36:22.947Z,0.75
2023-11-02T15:41:27.285Z,1.10
2023-11-02T15:46:31.850Z,1.10
2023-11-02T15:51:34.761Z,1.70
2023-11-02T15:56:38.884Z,0.75
2023-11-02T16:06:45.772Z,0.95
2023-11-02T16:11:53.011Z,0.80
2023-11-02T16:16:56.195Z,1.02
2023-11-02T16:21:58.833Z,1.23
2023-11-02T16:27:03.243Z,2.03
2023-11-02T16:32:06.803Z,2.55
2023-11-02T16:37:09.384Z,2.05
2023-11-02T16:42:14.010Z,1.30
2023-11-02T16:47:17.511Z,1.98
2023-11-02T16:52:20.222Z,1.13
2023-11-02T16:57:24.167Z,1.75
2023-11-02T17:02:27.033Z,0.77
2023-11-02T17:07:30.178Z,1.40
2023-11-02T17:12:34.164Z,1.80
2023-11-02T17:17:37.189Z,1.55
2023-11-02T17:22:41.692Z,1.42
2023-11-02T17:27:46.082Z,1.27
2023-11-02T17:32:48.786Z,1.55
2023-11-02T17:37:51.445Z,1.40
2023-11-02T17:42:55.431Z,1.08
2023-11-02T17:47:59.541Z,0.47
2023-11-02T17:58:06.445Z,1.20
2023-11-02T18:03:09.131Z,0.65
2023-11-02T18:08:12.680Z,1.88
2023-11-02T18:13:16.633Z,1.55
2023-11-02T18:18:19.660Z,1.27
2023-11-02T18:23:23.948Z,1.13
2023-11-02T18:28:28.332Z,0.75
2023-11-02T18:38:36.777Z,0.82
2023-11-02T18:43:42.162Z,1.20
2023-11-02T18:48:44.789Z,1.33
2023-11-02T18:53:48.003Z,1.17
2023-11-02T18:58:51.996Z,1.57
2023-11-02T19:03:54.700Z,1.38
2023-11-02T19:08:57.687Z,0.90
2023-11-02T19:14:01.885Z,0.88
2023-11-02T19:24:11.786Z,1.20
2023-11-02T19:29:15.924Z,1.10
2023-11-02T19:39:22.302Z,0.75
2023-11-02T19:44:27.194Z,0.80
2023-11-02T19:49:29.850Z,1.15
2023-11-02T19:54:32.537Z,0.68
2023-11-02T19:59:36.519Z,1.08
2023-11-02T20:04:39.633Z,0.73
2023-11-02T20:09:42.225Z,0.73
2023-11-02T20:14:47.080Z,0.70
2023-11-02T20:19:49.844Z,0.20
2023-11-02T20:24:53.010Z,0.85
2023-11-02T20:29:57.933Z,0.93
2023-11-02T20:35:00.702Z,0.93
2023-11-02T20:40:04.621Z,0.50
2023-11-02T20:45:09.882Z,0.38
2023-11-02T20:50:12.595Z,0.60
2023-11-02T20:55:16.889Z,0.65
2023-11-02T21:00:22.720Z,0.35
2023-11-02T21:05:25.490Z,0.50
2023-11-02T21:10:28.156Z,0.30
2023-11-02T21:15:32.172Z,0.40
2023-11-02T21:20:35.231Z,0.75
2023-11-02T21:25:37.938Z,0.50
2023-11-02T21:30:41.859Z,0.68
2023-11-02T21:35:44.730Z,0.50
2023-11-02T21:40:47.370Z,0.40
2023-11-02T21:45:51.488Z,0.80
2023-11-02T21:50:54.193Z,0.57
2023-11-02T21:55:56.865Z,0.47
2023-11-02T22:01:00.921Z,0.65
2023-11-02T22:06:07.264Z,0.68
2023-11-02T22:11:10.908Z,0.47
2023-11-02T22:16:15.987Z,0.80
2023-11-02T22:21:19.448Z,0.65
2023-11-02T22:26:23.646Z,0.60
2023-11-02T22:31:28.114Z,0.47
2023-11-02T22:36:30.780Z,0.55
2023-11-02T22:41:40.256Z,0.30
2023-11-02T22:46:44.657Z,0.30
2023-11-02T22:51:48.523Z,0.77
2023-11-02T22:56:51.311Z,0.45
2023-11-02T23:01:56.254Z,0.20
2023-11-02T23:06:59.332Z,0.60
2023-11-02T23:12:01.927Z,0.60
2023-11-02T23:17:05.891Z,0.57
2023-11-02T23:27:11.089Z,0.50
2023-11-02T23:32:15.190Z,0.68
2023-11-02T23:42:20.191Z,0.47
2023-11-02T23:47:24.568Z,0.15
2023-11-02T23:52:27.113Z,0.30
2023-11-02T23:57:30.570Z,0.10
